Time;durP1;ratioP1;P1;durP2;ratioP2;P2;SDS_P1;SDS_P2;PMS_P1;PMS_P2;Temp;Humidity;BMP_temperature;BMP_pressure;BME280_temperature;BME280_humidity;BME280_pressure;Samples;Min_cycle;Max_cycle;Signal;HPM_P1;HPM_P2
2022/05/05 00:01:43;;;;;;;12.52;4.95;;;10.80;99.90;;;9.67;90.63;101421.03;4914819;28;20039;-77
2022/05/05 00:04:10;;;;;;;14.40;4.95;;;10.80;99.90;;;9.63;90.92;101421.16;4909315;28;20094;-77
2022/05/05 00:06:36;;;;;;;18.67;5.22;;;10.70;99.90;;;9.63;90.58;101415.00;4903392;28;20035;-78
2022/05/05 00:09:03;;;;;;;15.20;5.22;;;10.80;99.90;;;9.62;90.57;101408.03;4926903;28;20112;-77
2022/05/05 00:14:31;;;;;;;19.00;5.13;;;10.70;99.90;;;9.56;90.99;101414.34;4934527;28;20053;-78
2022/05/05 00:16:59;;;;;;;13.55;4.97;;;10.70;99.90;;;9.62;90.52;101418.56;4891908;28;20031;-78
2022/05/05 00:19:34;;;;;;;19.45;6.00;;;10.70;99.90;;;9.64;90.72;101430.75;4880102;28;20061;-77
2022/05/05 00:22:00;;;;;;;20.90;4.70;;;10.70;99.90;;;9.61;90.54;101427.34;4938866;28;20506;-77
2022/05/05 00:24:27;;;;;;;14.60;5.28;;;10.70;99.90;;;9.61;90.42;101432.59;4938892;28;20113;-78
2022/05/05 00:26:53;;;;;;;18.27;5.00;;;10.70;99.90;;;9.60;90.38;101442.25;4912288;28;20088;-78
2022/05/05 00:29:25;;;;;;;16.17;5.00;;;10.70;99.90;;;9.61;89.78;101433.50;4905646;28;20043;-77
2022/05/05 00:31:51;;;;;;;18.00;5.32;;;10.80;99.90;;;9.64;89.96;101435.16;4922804;28;20151;-77
2022/05/05 00:34:17;;;;;;;19.45;5.28;;;10.70;99.90;;;9.61;89.89;101428.22;4916380;28;20134;-77
2022/05/05 00:36:43;;;;;;;16.17;5.07;;;10.70;99.90;;;9.60;90.43;101429.13;4910437;28;20047;-77
2022/05/05 00:39:15;;;;;;;14.63;5.18;;;10.70;99.90;;;9.61;89.94;101414.19;4929207;28;20030;-77
2022/05/05 00:41:47;;;;;;;16.48;5.38;;;10.70;99.90;;;9.62;90.23;101415.94;4903674;28;20035;-78
2022/05/05 00:44:14;;;;;;;14.23;5.15;;;10.70;99.90;;;9.57;90.75;101413.44;4910298;28;20113;-77
2022/05/05 00:46:50;;;;;;;16.50;4.80;;;10.70;99.90;;;9.56;90.91;101416.13;4952220;28;20046;-77
2022/05/05 00:49:17;;;;;;;16.33;5.32;;;10.60;99.90;;;9.53;91.68;101416.22;4938777;28;20118;-77
2022/05/05 00:51:43;;;;;;;14.35;4.85;;;10.60;99.90;;;9.51;92.18;101416.28;4923653;28;20022;-77
2022/05/05 00:54:12;;;;;;;16.10;5.22;;;10.70;99.90;;;9.50;91.82;101417.16;4935973;28;20039;-77
2022/05/05 00:56:38;;;;;;;12.80;4.57;;;10.70;99.90;;;9.51;91.70;101423.31;4939693;28;20039;-77
2022/05/05 00:59:05;;;;;;;14.02;5.07;;;10.60;99.90;;;9.51;90.94;101429.41;4909630;28;20416;-77
2022/05/05 01:01:31;;;;;;;17.02;4.38;;;10.70;99.90;;;9.51;90.10;101431.19;4918187;28;20042;-77
2022/05/05 01:03:57;;;;;;;17.42;4.47;;;10.60;99.90;;;9.50;88.57;101437.34;4907674;28;20387;-77
2022/05/05 01:06:28;;;;;;;14.60;4.00;;;10.60;99.90;;;9.48;87.99;101437.41;4920813;28;20030;-77
2022/05/05 01:08:54;;;;;;;12.02;3.67;;;10.60;99.90;;;9.50;86.40;101438.19;4932126;28;20023;-77
2022/05/05 01:11:19;;;;;;;11.70;3.47;;;10.60;99.90;;;9.54;86.20;101446.84;4900574;28;20423;-77
2022/05/05 01:13:45;;;;;;;15.23;4.30;;;10.70;99.90;;;9.57;85.99;101438.91;4927992;28;20039;-77
2022/05/05 01:16:11;;;;;;;16.48;4.38;;;10.60;99.90;;;9.50;86.11;101440.81;4897576;28;20040;-76
2022/05/05 01:18:38;;;;;;;10.57;3.25;;;10.60;99.90;;;9.48;84.70;101429.53;4926100;28;20074;-77
2022/05/05 01:21:08;;;;;;;9.60;4.00;;;10.70;99.90;;;9.53;84.42;101435.50;4910168;28;20034;-76
2022/05/05 01:23:33;;;;;;;9.98;3.45;;;10.70;99.90;;;9.52;85.03;101433.75;4904112;28;20090;-77
2022/05/05 01:28:45;;;;;;;19.00;4.40;;;10.60;99.90;;;9.48;86.02;101434.78;4945796;28;20037;-77
2022/05/05 01:31:16;;;;;;;12.82;3.88;;;10.60;99.90;;;9.47;86.35;101442.72;4910506;28;20034;-77
2022/05/05 01:33:42;;;;;;;15.20;3.97;;;10.60;99.90;;;9.48;86.61;101445.28;4893146;28;20051;-77
2022/05/05 01:36:08;;;;;;;16.42;4.03;;;10.60;99.90;;;9.50;86.49;101451.34;4880241;28;20111;-76
2022/05/05 01:38:36;;;;;;;11.18;4.05;;;10.60;99.90;;;9.51;85.60;101449.59;4913726;28;20499;-76
2022/05/05 01:41:13;;;;;;;10.55;3.40;;;10.60;99.90;;;9.48;86.12;101447.94;4902632;28;20465;-77
2022/05/05 01:43:51;;;;;;;12.80;3.20;;;10.60;99.90;;;9.44;85.10;101446.28;4940158;28;20097;-76
2022/05/05 01:46:17;;;;;;;9.70;3.03;;;10.60;99.90;;;9.39;85.07;101451.66;4924523;28;20026;-77
2022/05/05 01:48:43;;;;;;;20.70;3.78;;;10.50;99.90;;;9.38;85.45;101451.72;4939591;28;20041;-77
2022/05/05 01:51:09;;;;;;;18.88;3.97;;;10.50;99.90;;;9.37;85.64;101455.25;4901136;28;20047;-76
2022/05/05 01:53:41;;;;;;;16.23;3.28;;;10.50;99.90;;;9.34;85.88;101453.56;4894438;28;20055;-77
2022/05/05 01:56:12;;;;;;;9.10;3.40;;;10.50;99.90;;;9.34;85.82;101461.47;4920022;28;20030;-77
2022/05/05 01:58:41;;;;;;;20.45;4.20;;;10.50;99.90;;;9.33;85.47;101466.75;4955159;28;20101;-77
2022/05/05 02:01:11;;;;;;;11.20;3.65;;;10.40;99.90;;;9.34;85.60;101463.25;4957314;28;20050;-78
2022/05/05 02:03:37;;;;;;;11.20;3.30;;;10.80;99.90;;;9.35;85.48;101467.56;4955631;28;20035;-77
2022/05/05 02:06:04;;;;;;;7.82;2.90;;;10.50;99.90;;;9.34;85.54;101464.09;4921171;28;20050;-77
2022/05/05 02:08:30;;;;;;;12.13;3.28;;;10.50;99.90;;;9.33;85.13;101465.00;4923535;28;20031;-76
2022/05/05 02:11:00;;;;;;;11.43;3.20;;;10.40;99.90;;;9.28;84.70;101468.66;4917848;28;20039;-77
2022/05/05 02:13:26;;;;;;;15.40;3.25;;;10.40;99.90;;;9.22;84.27;101462.69;4902661;28;20085;-77
2022/05/05 02:15:52;;;;;;;11.48;3.17;;;10.30;99.90;;;9.17;83.92;101461.09;4909504;28;20026;-77
2022/05/05 02:18:18;;;;;;;13.98;3.47;;;10.30;99.90;;;9.12;83.36;101466.50;4906398;28;20067;-76
2022/05/05 02:20:44;;;;;;;16.85;3.63;;;10.30;99.90;;;9.08;82.42;101464.84;4952763;28;20025;-76
2022/05/05 02:23:10;;;;;;;15.82;3.00;;;10.30;99.90;;;9.05;82.31;101462.31;4894974;28;20399;-78
2022/05/05 02:25:36;;;;;;;9.70;3.08;;;10.20;99.90;;;9.03;81.97;101466.75;4904905;28;20108;-77
2022/05/05 02:28:03;;;;;;;14.80;3.17;;;10.20;99.90;;;8.98;81.63;101466.00;4924451;28;20037;-76
2022/05/05 02:30:29;;;;;;;10.68;2.75;;;10.10;99.90;;;8.93;82.04;101460.91;4947122;28;20037;-77
2022/05/05 02:32:55;;;;;;;10.68;3.15;;;10.10;99.90;;;8.86;81.68;101466.38;4909164;28;20032;-77
2022/05/05 02:35:20;;;;;;;9.15;2.97;;;10.00;99.90;;;8.80;82.04;101462.13;4925130;28;20910;-76
2022/05/05 02:40:32;;;;;;;16.50;3.42;;;9.90;99.90;;;8.67;82.26;101472.13;4923367;28;20549;-77
2022/05/05 02:43:01;;;;;;;9.77;3.35;;;9.90;99.90;;;8.66;82.80;101470.41;4944568;28;20119;-76
2022/05/05 02:45:27;;;;;;;10.50;3.50;;;9.80;99.90;;;8.59;82.90;101460.94;4933631;28;20034;-77
2022/05/05 02:47:53;;;;;;;8.68;3.35;;;9.80;99.90;;;8.55;82.48;101467.19;4923311;28;20141;-76
2022/05/05 02:50:19;;;;;;;13.93;4.13;;;9.80;99.90;;;8.54;81.52;101463.69;4901767;28;20085;-76
2022/05/05 02:52:45;;;;;;;16.08;3.90;;;9.70;99.90;;;8.49;81.41;101462.09;4920860;28;20027;-77
2022/05/05 02:55:13;;;;;;;12.52;4.20;;;9.70;99.90;;;8.49;81.36;101464.72;4923686;28;20051;-77
2022/05/05 02:57:39;;;;;;;10.40;4.00;;;9.60;99.90;;;8.37;80.99;101460.63;4944969;28;20037;-77
2022/05/05 03:00:07;;;;;;;17.80;3.78;;;9.60;99.90;;;8.41;81.09;101457.91;4928708;28;20026;-77
2022/05/05 03:02:34;;;;;;;13.25;3.88;;;9.60;99.90;;;8.43;80.85;101470.16;4935351;28;20368;-77
2022/05/05 03:05:00;;;;;;;10.07;3.30;;;9.60;99.90;;;8.36;80.78;101457.16;4910107;28;20098;-77
2022/05/05 03:07:26;;;;;;;6.80;2.85;;;9.60;99.90;;;8.34;80.87;101463.34;4942161;28;20110;-76
2022/05/05 03:09:51;;;;;;;15.68;3.40;;;9.60;99.90;;;8.35;80.03;101468.53;4934785;28;20045;-77
2022/05/05 03:12:17;;;;;;;11.23;3.00;;;9.60;99.90;;;8.33;79.65;101462.44;4941670;28;20039;-77
2022/05/05 03:14:46;;;;;;;9.48;3.42;;;9.60;99.90;;;8.36;79.92;101459.78;4911393;28;20027;-76
2022/05/05 03:17:12;;;;;;;13.07;4.05;;;9.50;99.90;;;8.31;80.16;101466.03;4914021;28;20732;-76
2022/05/05 03:19:38;;;;;;;13.85;3.92;;;9.50;99.90;;;8.35;80.08;101463.28;4923297;28;20041;-76
2022/05/05 03:22:04;;;;;;;13.07;3.72;;;9.50;99.90;;;8.35;79.91;101463.28;4940427;28;20578;-76
2022/05/05 03:24:29;;;;;;;9.85;3.45;;;9.50;99.90;;;8.36;79.75;101459.78;4935391;28;20023;-76
2022/05/05 03:26:59;;;;;;;12.95;3.72;;;9.50;99.90;;;8.38;79.68;101463.22;4916366;28;20035;-77
2022/05/05 03:29:26;;;;;;;14.02;3.58;;;9.60;99.90;;;8.40;79.67;101469.31;4898119;28;20113;-77
2022/05/05 03:31:51;;;;;;;14.77;3.58;;;9.60;99.90;;;8.44;80.14;101474.47;4925557;28;20450;-76
2022/05/05 03:34:17;;;;;;;18.70;3.63;;;9.60;99.90;;;8.45;80.39;101470.97;4927224;28;20042;-77
2022/05/05 03:36:43;;;;;;;13.60;3.97;;;9.60;99.90;;;8.50;79.74;101477.81;4921707;28;20454;-77
2022/05/05 03:39:08;;;;;;;12.20;2.90;;;9.60;99.90;;;8.53;79.45;101476.84;4897400;28;20409;-77
2022/05/05 03:41:34;;;;;;;12.85;4.35;;;9.70;99.90;;;8.56;79.16;101484.66;4922179;28;20095;-77
2022/05/05 03:44:07;;;;;;;9.15;3.25;;;9.70;99.90;;;8.60;79.18;101488.94;4908966;28;20054;-76
2022/05/05 03:46:34;;;;;;;6.90;3.05;;;9.70;99.90;;;8.62;79.35;101493.25;4925906;28;20104;-77
2022/05/05 03:49:00;;;;;;;12.50;2.75;;;9.70;99.90;;;8.66;78.91;101498.41;4881175;28;20034;-77
2022/05/05 03:51:25;;;;;;;15.75;3.05;;;9.80;99.90;;;8.69;79.10;101488.69;4922897;28;20117;-77
2022/05/05 03:53:55;;;;;;;12.70;3.33;;;9.80;99.90;;;8.70;78.98;101495.66;4947514;28;20041;-77
2022/05/05 03:56:20;;;;;;;13.50;3.47;;;9.80;99.90;;;8.72;78.72;101498.25;4928488;28;20370;-77
2022/05/05 03:58:46;;;;;;;26.55;3.60;;;9.90;99.90;;;8.73;79.01;101495.59;4967654;28;20089;-77
2022/05/05 04:01:12;;;;;;;15.07;3.58;;;9.80;99.90;;;8.78;78.94;101498.09;4926290;28;20734;-77
2022/05/05 04:03:43;;;;;;;18.45;3.30;;;9.90;99.90;;;8.82;78.92;101503.22;4960645;28;20019;-76
2022/05/05 04:06:09;;;;;;;9.88;3.55;;;9.90;99.90;;;8.86;79.20;101493.50;4932454;28;20020;-76
2022/05/05 04:08:38;;;;;;;11.45;3.78;;;9.90;99.90;;;8.89;79.00;101497.78;4941747;28;20388;-77
2022/05/05 04:11:06;;;;;;;13.32;3.33;;;10.00;99.90;;;8.91;78.92;101496.00;4918487;28;20365;-77
2022/05/05 04:13:32;;;;;;;9.25;3.47;;;10.00;99.90;;;8.92;79.30;101495.06;4918612;28;20045;-77
2022/05/05 04:15:58;;;;;;;15.10;4.07;;;10.00;99.90;;;8.91;79.75;101496.00;4924349;28;20031;-77
2022/05/05 04:18:23;;;;;;;12.73;3.78;;;10.00;99.90;;;8.90;80.25;101508.25;4955250;28;20065;-78
2022/05/05 04:20:54;;;;;;;13.23;3.92;;;10.00;99.90;;;8.92;80.84;101510.84;4941987;28;20111;-77
2022/05/05 04:23:20;;;;;;;12.30;3.97;;;10.00;99.90;;;8.93;81.13;101512.56;4947702;28;20140;-77
2022/05/05 04:25:47;;;;;;;7.82;3.28;;;10.00;99.90;;;8.95;81.67;101503.75;4903060;28;20028;-77
2022/05/05 04:28:13;;;;;;;9.50;4.03;;;10.00;99.90;;;8.98;82.19;101511.53;4887336;28;20396;-76
2022/05/05 04:30:42;;;;;;;7.57;3.65;;;10.10;99.90;;;8.97;83.33;101512.44;4916100;28;20034;-77
2022/05/05 04:33:08;;;;;;;8.13;3.70;;;10.00;99.90;;;8.91;84.12;101523.09;4886457;28;20045;-76
2022/05/05 04:35:35;;;;;;;7.30;3.40;;;10.00;99.90;;;8.84;85.00;101518.94;4921185;28;20050;-76
2022/05/05 04:38:02;;;;;;;8.60;3.67;;;9.90;99.90;;;8.76;85.51;101520.91;4933234;28;20462;-77
2022/05/05 04:40:27;;;;;;;7.10;3.55;;;9.80;99.90;;;8.69;85.84;101525.44;4907106;28;20403;-77
2022/05/05 04:42:53;;;;;;;8.10;4.05;;;9.80;99.90;;;8.67;85.71;101527.25;4901061;28;20043;-77
2022/05/05 04:45:21;;;;;;;9.50;3.85;;;9.80;99.90;;;8.66;85.91;101527.28;4903606;28;20391;-77
2022/05/05 04:47:47;;;;;;;9.02;3.88;;;9.80;99.90;;;8.66;85.95;101522.03;4926986;28;20019;-77
2022/05/05 04:50:12;;;;;;;13.88;4.57;;;9.80;99.90;;;8.63;85.59;101517.72;4923703;28;20039;-77
2022/05/05 04:52:39;;;;;;;11.18;4.70;;;9.80;99.90;;;8.62;86.08;101518.63;4897302;28;20846;-77
2022/05/05 04:55:04;;;;;;;12.18;4.70;;;9.70;99.90;;;8.65;86.01;101518.53;4916695;28;20059;-77
2022/05/05 04:57:30;;;;;;;10.50;4.53;;;9.80;99.90;;;8.70;86.56;101516.66;4918564;28;20038;-77
2022/05/05 04:59:56;;;;;;;10.88;4.60;;;9.80;99.90;;;8.78;86.31;101524.34;4932786;28;20086;-77
2022/05/05 05:02:21;;;;;;;20.52;4.25;;;9.80;99.90;;;8.85;85.47;101520.63;4954675;28;20488;-77
2022/05/05 05:04:50;;;;;;;13.35;4.10;;;9.90;99.90;;;8.92;86.08;101516.09;4934793;28;20066;-76
2022/05/05 05:07:16;;;;;;;12.25;4.22;;;10.00;99.90;;;8.97;84.73;101522.09;4921140;28;20027;-77
2022/05/05 05:09:41;;;;;;;11.80;4.45;;;10.00;99.90;;;8.99;84.25;101522.91;4913981;28;20077;-77
2022/05/05 05:12:08;;;;;;;14.35;4.60;;;10.00;99.90;;;8.98;84.61;101527.28;4903553;28;20042;-77
2022/05/05 05:14:34;;;;;;;9.88;4.20;;;10.00;99.90;;;9.04;85.27;101524.50;4923460;28;20043;-76
2022/05/05 05:17:00;;;;;;;10.50;4.20;;;10.10;99.90;;;9.17;84.98;101525.00;4917164;28;20047;-77
2022/05/05 05:19:27;;;;;;;7.25;3.78;;;10.20;99.90;;;9.37;83.82;101531.47;4912745;28;20043;-77
2022/05/05 05:21:58;;;;;;;9.45;4.30;;;10.30;99.90;;;9.61;83.31;101527.25;4934555;23;20053;-78
2022/05/05 05:24:23;;;;;;;11.77;4.47;;;10.60;99.90;;;9.95;82.21;101536.75;4917128;28;20078;-77
2022/05/05 05:26:49;;;;;;;8.43;4.05;;;10.80;99.90;;;10.48;79.88;101541.28;4856398;28;20730;-77
2022/05/05 05:29:15;;;;;;;9.23;3.70;;;11.00;99.90;;;10.31;79.94;101545.31;4923148;28;20028;-77
2022/05/05 05:31:41;;;;;;;18.80;4.40;;;11.00;99.90;;;10.18;80.26;101547.44;4885860;28;20054;-77
2022/05/05 05:34:06;;;;;;;11.38;4.68;;;11.10;99.90;;;10.15;80.53;101552.81;4881144;28;20051;-77
2022/05/05 05:36:32;;;;;;;15.27;6.10;;;11.10;99.90;;;10.18;80.95;101554.47;4887576;28;20853;-77
2022/05/05 05:38:58;;;;;;;11.60;5.35;;;11.10;99.90;;;10.36;81.38;101555.69;4923520;28;20035;-77
2022/05/05 05:41:26;;;;;;;14.00;4.80;;;11.30;99.90;;;10.74;80.47;101559.69;4899075;28;20082;-76
2022/05/05 05:43:52;;;;;;;9.55;4.18;;;11.70;99.90;;;13.14;75.27;101566.22;4904673;28;20491;-76
2022/05/05 05:46:17;;;;;;;12.35;3.67;;;12.40;99.90;;;12.62;68.27;101549.97;4896075;28;20089;-76
2022/05/05 05:48:43;;;;;;;16.08;4.30;;;12.60;99.90;;;12.14;69.05;101551.03;4922325;28;20042;-76
2022/05/05 05:51:09;;;;;;;14.82;3.88;;;12.60;99.90;;;11.70;69.30;101547.44;4926773;28;20031;-77
2022/05/05 05:53:34;;;;;;;10.65;3.42;;;12.40;99.90;;;11.44;69.41;101556.31;4897647;28;20094;-76
2022/05/05 05:56:05;;;;;;;10.88;3.13;;;12.20;99.90;;;11.14;69.86;101560.91;4899158;28;20770;-76
2022/05/05 05:58:30;;;;;;;12.00;3.55;;;12.10;99.90;;;10.95;70.85;101563.38;4899601;28;20031;-77
2022/05/05 06:00:56;;;;;;;11.55;3.33;;;11.90;99.90;;;10.96;71.41;101558.94;4869732;28;21576;-76
2022/05/05 06:06:07;;;;;;;10.18;4.43;;;12.80;99.90;;;15.54;62.05;101579.28;4888457;28;20059;-76
2022/05/05 06:08:37;;;;;;;12.32;3.97;;;13.70;99.90;;;14.80;60.19;101573.50;4868770;28;20107;-77
2022/05/05 06:11:03;;;;;;;9.82;3.67;;;14.20;99.90;;;14.50;59.42;101582.00;4878252;28;20135;-76
2022/05/05 06:13:29;;;;;;;18.27;4.43;;;14.40;99.90;;;14.66;59.56;101593.56;4894777;28;20119;-76
2022/05/05 06:15:55;;;;;;;12.38;3.83;;;14.70;99.90;;;15.03;58.04;101597.03;4881033;28;20496;-76
2022/05/05 06:18:21;;;;;;;15.80;4.35;;;14.80;99.90;;;14.66;58.53;101595.38;4896740;28;20078;-77
2022/05/05 06:20:53;;;;;;;21.15;5.28;;;14.80;99.90;;;14.24;59.57;101596.53;4908018;28;20043;-76
2022/05/05 06:23:19;;;;;;;13.93;4.63;;;14.70;99.90;;;14.40;59.35;101602.78;4890714;28;20047;-76
2022/05/05 06:25:44;;;;;;;14.07;4.65;;;14.70;99.90;;;15.65;57.74;101605.25;4873073;28;20049;-77
2022/05/05 06:28:10;;;;;;;13.82;4.28;;;15.40;99.90;;;17.05;54.44;101612.50;4849127;28;20515;-77
2022/05/05 06:30:37;;;;;;;20.20;4.68;;;16.10;99.90;;;17.54;51.49;101612.19;4866355;28;20122;-77
2022/05/05 06:33:10;;;;;;;18.70;4.45;;;17.10;99.90;;;19.80;47.61;101610.56;4882086;28;20677;-76
2022/05/05 06:35:36;;;;;;;16.10;3.95;;;18.50;99.90;;;21.36;44.08;101619.44;4890065;28;20530;-76
2022/05/05 06:38:03;;;;;;;12.20;4.38;;;19.40;99.90;;;21.27;44.16;101615.66;4875524;28;20069;-76
2022/05/05 06:40:29;;;;;;;10.13;4.78;;;19.70;99.70;;;20.41;45.66;101626.63;4894433;28;20102;-77
2022/05/05 06:42:56;;;;;;;18.55;4.45;;;19.70;99.70;;;20.28;46.27;101632.06;4879225;28;20031;-76
2022/05/05 06:45:22;;;;;;;13.52;4.97;;;19.40;99.50;;;18.81;48.36;101638.69;4915790;28;20055;-76
2022/05/05 06:47:48;;;;;;;17.27;4.82;;;18.70;99.90;;;17.92;51.08;101632.91;4887064;28;20126;-76
2022/05/05 06:50:21;;;;;;;22.40;5.45;;;18.30;99.90;;;18.00;51.47;101643.94;4873272;28;20044;-76
2022/05/05 06:52:48;;;;;;;16.05;4.95;;;18.60;99.90;;;20.53;47.82;101647.13;4903621;28;20111;-77
2022/05/05 06:55:17;;;;;;;11.77;4.60;;;19.60;99.90;;;21.70;44.40;101648.97;4890726;28;20036;-77
2022/05/05 06:57:46;;;;;;;12.30;4.25;;;20.90;99.90;;;22.93;42.73;101661.28;4894469;28;20027;-76
2022/05/05 07:00:13;;;;;;;15.10;3.65;;;21.90;96.50;;;23.72;40.30;101657.28;4884674;28;20556;-76
2022/05/05 07:02:39;;;;;;;17.08;3.75;;;22.30;95.20;;;23.58;40.47;101663.84;4919781;28;20035;-77
2022/05/05 07:05:23;;;;;;;11.63;3.05;;;22.90;94.40;;;24.48;39.02;101664.91;4884383;28;20038;-76
2022/05/05 07:07:51;;;;;;;13.82;3.40;;;23.30;92.70;;;24.52;38.36;101667.19;4928804;28;20551;-76
2022/05/05 07:13:02;;;;;;;14.02;3.28;;;24.30;90.80;;;25.15;36.83;101688.31;4923053;28;20123;-76
2022/05/05 07:15:28;;;;;;;6.40;2.30;;;24.40;89.40;;;24.87;36.53;101694.59;4905299;28;20050;-76
2022/05/05 07:17:54;;;;;;;9.65;2.80;;;24.50;87.70;;;24.97;36.52;101692.75;4906662;28;20452;-76
2022/05/05 07:20:20;;;;;;;7.47;2.38;;;24.80;89.10;;;25.11;36.55;101694.16;4912378;28;20074;-76
2022/05/05 07:22:51;;;;;;;9.57;2.50;;;24.80;87.40;;;24.65;37.27;101696.56;4951287;28;20043;-77
2022/05/05 07:25:18;;;;;;;10.32;2.75;;;25.10;84.40;;;25.11;35.81;101703.06;4921424;28;20511;-76
2022/05/05 07:27:44;;;;;;;9.95;2.60;;;25.50;86.30;;;25.70;35.53;101709.25;4907522;28;20081;-76
2022/05/05 07:30:11;;;;;;;12.73;2.92;;;25.20;86.00;;;24.86;36.75;101706.34;4914490;28;20687;-75
2022/05/05 07:32:37;;;;;;;11.48;2.97;;;25.10;83.50;;;24.73;36.51;101720.94;4921004;28;20042;-76
2022/05/05 07:35:03;;;;;;;10.25;2.42;;;25.10;82.50;;;24.95;36.08;101725.22;4876622;28;20063;-76
2022/05/05 07:37:29;;;;;;;9.30;2.30;;;25.20;81.50;;;25.05;34.47;101725.19;4909857;28;20122;-76
2022/05/05 07:39:54;;;;;;;13.20;2.60;;;25.20;81.10;;;25.15;34.45;101734.13;4882074;28;20552;-76
2022/05/05 07:42:20;;;;;;;;;;;25.30;84.00;;;24.85;32.99;101734.28;4900165;28;20411;-76
2022/05/05 07:44:46;;;;;;;8.63;2.00;;;25.10;80.10;;;24.71;35.13;101741.78;4902489;28;19919;-76
2022/05/05 07:47:11;;;;;;;12.60;3.00;;;25.30;79.50;;;25.07;34.52;101752.00;4925297;28;20035;-77
2022/05/05 07:49:37;;;;;;;11.30;2.65;;;25.30;80.00;;;25.24;34.13;101743.25;4898489;28;20035;-77
2022/05/05 07:52:03;;;;;;;10.93;2.70;;;25.30;78.90;;;25.03;34.20;101762.19;4905065;28;20454;-76
2022/05/05 07:54:35;;;;;;;13.43;2.85;;;25.30;79.90;;;24.88;34.32;101763.59;4908902;28;20530;-76
2022/05/05 07:57:05;;;;;;;10.95;2.35;;;25.00;78.90;;;24.25;35.53;101770.06;4906447;28;20020;-77
2022/05/05 07:59:31;;;;;;;10.65;2.78;;;24.70;78.10;;;24.14;35.32;101781.78;4919376;28;20039;-76
2022/05/05 08:01:57;;;;;;;9.77;2.40;;;24.60;79.50;;;24.32;34.77;101783.88;4925972;28;20078;-76
2022/05/05 08:04:25;;;;;;;7.20;2.40;;;24.60;80.20;;;24.20;34.89;101777.72;4902292;28;20027;-77
2022/05/05 08:06:52;;;;;;;14.00;2.55;;;24.40;79.00;;;23.97;35.31;101790.47;4878026;28;20522;-76
2022/05/05 08:09:18;;;;;;;10.95;2.75;;;24.30;81.90;;;23.80;35.93;101791.97;4906244;28;20117;-76
2022/05/05 08:11:44;;;;;;;10.75;2.60;;;24.00;81.10;;;23.34;35.56;101790.44;4896604;28;20110;-76
2022/05/05 08:14:10;;;;;;;11.98;3.03;;;23.80;82.00;;;23.35;36.22;101789.47;4897797;28;20513;-77
2022/05/05 08:16:36;;;;;;;;;;;23.80;82.90;;;23.00;37.94;101787.00;4929693;28;20468;-77
2022/05/05 08:19:06;;;;;;;12.93;2.75;;;23.50;82.10;;;23.06;37.36;101798.13;4919037;28;19911;-76
2022/05/05 08:21:32;;;;;;;14.15;3.85;;;23.40;81.40;;;23.18;36.67;101796.25;4894736;28;20119;-76
2022/05/05 08:29:27;;;;;;;14.05;3.92;;;22.90;81.30;;;22.04;37.45;101807.19;4897253;29;20086;-76
2022/05/05 08:31:53;;;;;;;16.02;3.83;;;22.60;85.00;;;22.04;39.07;101808.03;4920345;28;20052;-77
2022/05/05 08:34:19;;;;;;;8.40;3.20;;;22.60;84.50;;;22.12;38.17;101805.59;4886967;28;20449;-76
2022/05/05 08:36:45;;;;;;;12.43;4.03;;;22.30;85.80;;;21.54;40.37;101798.53;4889379;28;20034;-77
2022/05/05 08:39:11;;;;;;;13.02;4.25;;;22.20;85.50;;;22.12;39.18;101802.06;4905130;28;20099;-76
2022/05/05 08:41:40;;;;;;;10.65;3.42;;;22.00;85.90;;;21.75;39.10;101807.63;4895636;28;20034;-75
2022/05/05 08:44:07;;;;;;;6.80;3.10;;;22.00;85.50;;;21.65;39.03;101811.97;4909226;28;20032;-76
2022/05/05 08:46:34;;;;;;;8.27;3.08;;;22.00;88.00;;;21.73;39.74;101814.03;4936963;28;20119;-76
2022/05/05 08:49:05;;;;;;;13.18;3.90;;;22.10;85.90;;;21.78;40.11;101810.06;4907332;28;20038;-77
2022/05/05 08:51:44;;;;;;;13.65;3.58;;;22.30;89.10;;;22.11;41.11;101813.75;4882901;28;20030;-76
2022/05/05 08:54:16;;;;;;;13.68;3.30;;;22.50;89.40;;;22.45;40.42;101805.78;4899234;28;20047;-77
2022/05/05 08:56:49;;;;;;;10.75;3.00;;;22.60;86.00;;;22.13;40.07;101814.50;4897277;28;20028;-76
2022/05/05 08:59:21;;;;;;;9.30;3.03;;;22.30;82.00;;;21.25;39.81;101821.16;4910458;28;20035;-77
2022/05/05 09:01:49;;;;;;;11.07;3.13;;;21.50;84.30;;;20.07;41.02;101818.94;4916087;28;20143;-75
2022/05/05 09:04:15;;;;;;;17.65;3.38;;;20.90;89.20;;;19.66;43.76;101811.91;4944350;28;20047;-76
2022/05/05 09:06:44;;;;;;;9.77;3.10;;;20.60;89.00;;;19.85;43.12;101811.53;4935396;28;20052;-77
2022/05/05 09:09:37;;;;;;;11.35;3.13;;;20.40;89.50;;;19.40;43.50;101805.66;4867455;28;20167;-77
2022/05/05 09:12:20;;;;;;;14.27;3.05;;;20.10;90.60;;;19.18;43.75;101811.53;4893652;28;20032;-76
2022/05/05 09:14:54;;;;;;;8.05;2.58;;;19.80;89.00;;;18.82;44.29;101796.97;4924370;28;20551;-77
2022/05/05 09:17:35;;;;;;;15.02;2.95;;;19.60;89.20;;;18.64;44.48;101799.84;4928574;28;20027;-76
2022/05/05 09:20:03;;;;;;;11.25;3.28;;;19.40;90.70;;;18.49;45.40;101797.25;4894275;28;20038;-75
2022/05/05 09:22:30;;;;;;;9.25;3.20;;;19.40;90.20;;;18.73;44.29;101794.88;4911253;28;20047;-76
2022/05/05 09:24:57;;;;;;;10.00;2.78;;;19.30;92.00;;;18.54;46.06;101797.84;4926676;28;20055;-76
2022/05/05 09:27:35;;;;;;;11.20;3.05;;;19.30;92.20;;;18.39;45.30;101797.00;4892688;28;20131;-76
2022/05/05 09:30:14;;;;;;;8.95;3.17;;;19.10;90.50;;;18.28;44.36;101794.16;4917144;28;20047;-76
2022/05/05 09:32:46;;;;;;;9.48;3.30;;;19.20;91.10;;;18.73;44.46;101790.38;4913179;28;20079;-76
2022/05/05 09:35:19;;;;;;;11.50;3.10;;;19.40;91.70;;;18.76;44.69;101790.16;4911943;28;20047;-76
2022/05/05 09:37:57;;;;;;;9.45;2.92;;;19.30;90.80;;;18.53;44.95;101796.13;4903379;28;20071;-75
2022/05/05 09:40:28;;;;;;;13.52;3.30;;;19.00;90.70;;;18.02;45.93;101794.78;4895968;28;20078;-76
2022/05/05 09:42:55;;;;;;;9.80;3.15;;;19.10;92.30;;;18.40;46.16;101796.03;4889752;28;20087;-76
2022/05/05 09:45:31;;;;;;;11.38;2.63;;;19.20;90.70;;;18.90;43.75;101796.47;4899150;28;20020;-76
2022/05/05 09:48:03;;;;;;;16.95;2.70;;;19.60;91.00;;;19.33;44.22;101797.19;4905092;28;20062;-76
2022/05/05 09:50:34;;;;;;;14.55;2.90;;;20.00;91.60;;;19.82;43.99;101803.72;4904835;28;20078;-76
2022/05/05 09:58:39;;;;;;;11.43;3.00;;;20.80;88.20;;;20.04;42.49;101811.97;4912207;28;20054;-77
2022/05/05 10:01:13;;;;;;;5.97;2.53;;;20.60;89.50;;;19.52;43.11;101812.81;4904525;28;20767;-77
2022/05/05 10:04:05;;;;;;;10.93;2.80;;;20.40;90.20;;;19.47;42.79;101812.28;4898395;28;20028;-76
2022/05/05 10:06:50;;;;;;;9.23;2.30;;;20.20;89.70;;;19.23;44.31;101810.28;4917039;28;20044;-76
2022/05/05 10:09:17;;;;;;;12.75;2.50;;;20.20;90.50;;;19.45;43.79;101803.50;4905157;28;20050;-76
2022/05/05 10:11:45;;;;;;;9.75;2.65;;;20.30;91.60;;;19.82;44.29;101801.91;4919964;28;20056;-76
2022/05/05 10:14:20;;;;;;;10.18;2.90;;;20.60;90.20;;;20.20;41.89;101800.22;4904754;28;20043;-76
2022/05/05 10:16:49;;;;;;;18.42;2.97;;;20.80;89.00;;;20.39;41.80;101807.75;4899468;28;20028;-76
2022/05/05 10:19:15;;;;;;;8.43;2.17;;;20.90;90.00;;;20.13;42.46;101805.13;4864756;28;20023;-76
2022/05/05 10:22:08;;;;;;;7.90;2.70;;;20.70;85.30;;;19.79;41.34;101806.63;4896525;28;20038;-76
2022/05/05 10:25:08;;;;;;;7.57;2.17;;;20.60;87.10;;;19.60;41.12;101802.47;4892364;28;20028;-77
2022/05/05 10:27:45;;;;;;;6.25;2.05;;;20.40;87.60;;;19.33;42.20;101802.53;4879570;28;20031;-76
2022/05/05 10:30:36;;;;;;;;;;;20.40;88.80;;;18.89;43.28;101792.94;4890401;28;20059;-76
2022/05/05 10:33:08;;;;;;;5.45;2.13;;;19.50;89.40;;;18.22;44.25;101793.56;4893674;28;19948;-76
2022/05/05 10:35:45;;;;;;;13.25;2.20;;;19.50;91.00;;;18.48;44.88;101795.56;4906669;28;20110;-78
2022/05/05 10:38:44;;;;;;;7.60;1.90;;;19.30;91.00;;;18.42;45.67;101788.78;4885901;28;20443;-77
2022/05/05 10:41:41;;;;;;;10.95;2.20;;;19.40;92.20;;;18.59;44.22;101790.41;4928815;28;20039;-77
2022/05/05 10:44:16;;;;;;;10.30;2.60;;;19.40;90.70;;;18.60;44.31;101794.78;4902506;28;20025;-76